sensor_id;sensor_type;location;lat;lon;timestamp;pressure;altitude;pressure_sealevel;temperature;humidity
60437;BME280;46289;51.992;4.498;2023-08-08T00:00:39;101502.81;;;16.17;97.81
60437;BME280;46289;51.992;4.498;2023-08-08T00:02:44;101492.38;;;16.14;98.19
60437;BME280;46289;51.992;4.498;2023-08-08T00:04:53;101498.53;;;16.15;97.91
60437;BME280;46289;51.992;4.498;2023-08-08T00:07:00;101498.53;;;16.15;98.42
60437;BME280;46289;51.992;4.498;2023-08-08T00:09:09;101506.41;;;16.16;98.15
60437;BME280;46289;51.992;4.498;2023-08-08T00:11:14;101507.50;;;16.12;98.11
60437;BME280;46289;51.992;4.498;2023-08-08T00:13:19;101500.75;;;16.07;98.68
60437;BME280;46289;51.992;4.498;2023-08-08T00:15:26;101495.19;;;16.11;98.45
60437;BME280;46289;51.992;4.498;2023-08-08T00:17:31;101505.94;;;16.08;98.91
60437;BME280;46289;51.992;4.498;2023-08-08T00:19:36;101500.56;;;16.10;98.50
60437;BME280;46289;51.992;4.498;2023-08-08T00:21:41;101509.44;;;16.09;98.61
60437;BME280;46289;51.992;4.498;2023-08-08T00:23:49;101498.16;;;16.05;98.65
60437;BME280;46289;51.992;4.498;2023-08-08T00:25:57;101498.41;;;16.00;98.84
60437;BME280;46289;51.992;4.498;2023-08-08T00:28:02;101498.56;;;15.97;99.08
60437;BME280;46289;51.992;4.498;2023-08-08T00:30:09;101497.72;;;15.97;98.81
60437;BME280;46289;51.992;4.498;2023-08-08T00:32:14;101497.72;;;15.97;98.34
60437;BME280;46289;51.992;4.498;2023-08-08T00:34:22;101505.84;;;15.94;97.93
60437;BME280;46289;51.992;4.498;2023-08-08T00:36:27;101501.78;;;15.87;97.55
60437;BME280;46289;51.992;4.498;2023-08-08T00:38:32;101500.06;;;15.86;97.58
60437;BME280;46289;51.992;4.498;2023-08-08T00:40:37;101495.00;;;15.81;96.61
60437;BME280;46289;51.992;4.498;2023-08-08T00:42:44;101501.56;;;15.74;96.41
60437;BME280;46289;51.992;4.498;2023-08-08T00:44:50;101499.91;;;15.71;94.31
60437;BME280;46289;51.992;4.498;2023-08-08T00:46:55;101497.28;;;15.71;92.86
60437;BME280;46289;51.992;4.498;2023-08-08T00:49:00;101497.81;;;15.78;90.68
60437;BME280;46289;51.992;4.498;2023-08-08T00:51:05;101486.38;;;15.77;88.57
60437;BME280;46289;51.992;4.498;2023-08-08T00:53:11;101489.44;;;15.68;88.52
60437;BME280;46289;51.992;4.498;2023-08-08T00:55:16;101486.97;;;15.65;88.11
60437;BME280;46289;51.992;4.498;2023-08-08T00:57:21;101486.28;;;15.62;87.68
60437;BME280;46289;51.992;4.498;2023-08-08T00:59:27;101487.50;;;15.54;87.21
60437;BME280;46289;51.992;4.498;2023-08-08T01:01:32;101485.16;;;15.66;85.78
60437;BME280;46289;51.992;4.498;2023-08-08T01:03:35;101481.81;;;15.62;84.98
60437;BME280;46289;51.992;4.498;2023-08-08T01:05:45;101485.50;;;15.59;85.19
60437;BME280;46289;51.992;4.498;2023-08-08T01:07:59;101491.63;;;15.60;84.85
60437;BME280;46289;51.992;4.498;2023-08-08T01:10:09;101493.59;;;15.56;85.21
60437;BME280;46289;51.992;4.498;2023-08-08T01:12:15;101490.78;;;15.59;84.49
60437;BME280;46289;51.992;4.498;2023-08-08T01:14:20;101490.78;;;15.59;84.65
60437;BME280;46289;51.992;4.498;2023-08-08T01:16:30;101497.94;;;15.57;84.93
60437;BME280;46289;51.992;4.498;2023-08-08T01:18:37;101490.94;;;15.56;84.41
60437;BME280;46289;51.992;4.498;2023-08-08T01:20:43;101488.94;;;15.62;83.50
60437;BME280;46289;51.992;4.498;2023-08-08T01:22:55;101484.53;;;15.61;83.49
60437;BME280;46289;51.992;4.498;2023-08-08T01:25:04;101481.91;;;15.61;83.76
60437;BME280;46289;51.992;4.498;2023-08-08T01:27:10;101489.63;;;15.65;82.78
60437;BME280;46289;51.992;4.498;2023-08-08T01:29:16;101498.00;;;15.75;81.99
60437;BME280;46289;51.992;4.498;2023-08-08T01:31:21;101493.88;;;15.69;82.63
60437;BME280;46289;51.992;4.498;2023-08-08T01:33:26;101487.63;;;15.70;81.56
60437;BME280;46289;51.992;4.498;2023-08-08T01:35:34;101491.25;;;15.68;81.22
60437;BME280;46289;51.992;4.498;2023-08-08T01:37:46;101486.28;;;15.62;81.46
60437;BME280;46289;51.992;4.498;2023-08-08T01:39:53;101483.53;;;15.63;80.64
60437;BME280;46289;51.992;4.498;2023-08-08T01:42:04;101479.19;;;15.62;80.75
60437;BME280;46289;51.992;4.498;2023-08-08T01:44:11;101481.03;;;15.60;80.28
60437;BME280;46289;51.992;4.498;2023-08-08T01:46:17;101482.22;;;15.54;80.00
60437;BME280;46289;51.992;4.498;2023-08-08T01:48:22;101486.50;;;15.57;79.69
60437;BME280;46289;51.992;4.498;2023-08-08T01:50:27;101483.38;;;15.49;79.83
60437;BME280;46289;51.992;4.498;2023-08-08T01:52:32;101481.19;;;15.40;80.25
60437;BME280;46289;51.992;4.498;2023-08-08T01:54:37;101474.25;;;15.37;80.36
60437;BME280;46289;51.992;4.498;2023-08-08T01:56:44;101477.06;;;15.34;80.51
60437;BME280;46289;51.992;4.498;2023-08-08T01:58:52;101465.69;;;15.32;80.19
60437;BME280;46289;51.992;4.498;2023-08-08T02:00:56;101469.34;;;15.29;80.74
60437;BME280;46289;51.992;4.498;2023-08-08T02:03:02;101469.44;;;15.28;80.92
60437;BME280;46289;51.992;4.498;2023-08-08T02:05:07;101471.13;;;15.29;79.96
60437;BME280;46289;51.992;4.498;2023-08-08T02:07:12;101465.94;;;15.45;77.70
60437;BME280;46289;51.992;4.498;2023-08-08T02:09:18;101467.50;;;15.49;76.80
60437;BME280;46289;51.992;4.498;2023-08-08T02:11:23;101461.09;;;15.35;77.50
60437;BME280;46289;51.992;4.498;2023-08-08T02:13:31;101459.91;;;15.24;78.37
60437;BME280;46289;51.992;4.498;2023-08-08T02:15:39;101467.16;;;15.20;78.79
60437;BME280;46289;51.992;4.498;2023-08-08T02:17:47;101456.09;;;15.12;78.43
60437;BME280;46289;51.992;4.498;2023-08-08T02:19:52;101453.53;;;15.10;78.37
60437;BME280;46289;51.992;4.498;2023-08-08T02:21:57;101462.41;;;15.09;78.25
60437;BME280;46289;51.992;4.498;2023-08-08T02:24:04;101458.91;;;15.09;78.47
60437;BME280;46289;51.992;4.498;2023-08-08T02:26:09;101464.75;;;15.15;77.95
60437;BME280;46289;51.992;4.498;2023-08-08T02:28:14;101468.19;;;15.18;77.14
60437;BME280;46289;51.992;4.498;2023-08-08T02:30:19;101470.72;;;15.19;77.33
60437;BME280;46289;51.992;4.498;2023-08-08T02:32:27;101462.78;;;15.19;76.67
60437;BME280;46289;51.992;4.498;2023-08-08T02:34:32;101463.56;;;15.21;77.13
60437;BME280;46289;51.992;4.498;2023-08-08T02:36:37;101457.59;;;15.18;77.21
60437;BME280;46289;51.992;4.498;2023-08-08T02:38:43;101460.63;;;15.10;77.69
60437;BME280;46289;51.992;4.498;2023-08-08T02:40:48;101462.63;;;15.05;77.63
60437;BME280;46289;51.992;4.498;2023-08-08T02:42:50;101453.63;;;15.09;77.59
60437;BME280;46289;51.992;4.498;2023-08-08T02:44:55;101454.75;;;15.03;77.78
60437;BME280;46289;51.992;4.498;2023-08-08T02:47:01;101449.56;;;15.02;76.86
60437;BME280;46289;51.992;4.498;2023-08-08T02:49:09;101441.69;;;15.00;76.41
60437;BME280;46289;51.992;4.498;2023-08-08T02:51:14;101439.50;;;14.91;77.34
60437;BME280;46289;51.992;4.498;2023-08-08T02:53:20;101444.22;;;14.84;76.84
60437;BME280;46289;51.992;4.498;2023-08-08T02:55:25;101447.66;;;14.86;75.65
60437;BME280;46289;51.992;4.498;2023-08-08T02:57:30;101449.81;;;14.78;76.26
60437;BME280;46289;51.992;4.498;2023-08-08T02:59:35;101436.81;;;14.74;76.53
60437;BME280;46289;51.992;4.498;2023-08-08T03:01:41;101441.81;;;14.80;74.97
60437;BME280;46289;51.992;4.498;2023-08-08T03:03:43;101441.81;;;14.80;74.18
60437;BME280;46289;51.992;4.498;2023-08-08T03:05:51;101445.94;;;14.85;74.07
60437;BME280;46289;51.992;4.498;2023-08-08T03:07:53;101441.81;;;14.80;74.00
60437;BME280;46289;51.992;4.498;2023-08-08T03:09:58;101443.53;;;14.81;74.09
60437;BME280;46289;51.992;4.498;2023-08-08T03:12:08;101439.38;;;14.75;74.18
60437;BME280;46289;51.992;4.498;2023-08-08T03:14:13;101443.69;;;14.78;74.22
60437;BME280;46289;51.992;4.498;2023-08-08T03:16:18;101444.47;;;14.80;74.06
60437;BME280;46289;51.992;4.498;2023-08-08T03:18:24;101444.59;;;14.77;74.84
60437;BME280;46289;51.992;4.498;2023-08-08T03:20:29;101443.09;;;14.71;74.63
60437;BME280;46289;51.992;4.498;2023-08-08T03:22:37;101444.88;;;14.70;74.76
60437;BME280;46289;51.992;4.498;2023-08-08T03:24:42;101444.88;;;14.70;75.08
60437;BME280;46289;51.992;4.498;2023-08-08T03:26:50;101437.81;;;14.71;75.36
60437;BME280;46289;51.992;4.498;2023-08-08T03:28:55;101441.56;;;14.67;74.97
60437;BME280;46289;51.992;4.498;2023-08-08T03:31:00;101439.81;;;14.66;75.48
60437;BME280;46289;51.992;4.498;2023-08-08T03:33:04;101435.38;;;14.66;75.28
60437;BME280;46289;51.992;4.498;2023-08-08T03:35:10;101440.44;;;14.71;74.96
60437;BME280;46289;51.992;4.498;2023-08-08T03:37:16;101439.78;;;14.85;73.46
60437;BME280;46289;51.992;4.498;2023-08-08T03:39:24;101434.38;;;14.88;73.11
60437;BME280;46289;51.992;4.498;2023-08-08T03:41:30;101433.56;;;15.03;71.78
60437;BME280;46289;51.992;4.498;2023-08-08T03:43:35;101423.88;;;15.04;71.70
60437;BME280;46289;51.992;4.498;2023-08-08T03:45:40;101430.72;;;15.08;71.22
60437;BME280;46289;51.992;4.498;2023-08-08T03:47:46;101430.00;;;15.04;71.68
60437;BME280;46289;51.992;4.498;2023-08-08T03:49:51;101429.44;;;14.98;72.13
60437;BME280;46289;51.992;4.498;2023-08-08T03:51:57;101420.88;;;14.92;73.40
60437;BME280;46289;51.992;4.498;2023-08-08T03:53:59;101420.25;;;14.87;73.34
60437;BME280;46289;51.992;4.498;2023-08-08T03:56:07;101415.03;;;14.86;73.98
60437;BME280;46289;51.992;4.498;2023-08-08T03:58:12;101415.09;;;14.84;75.07
60437;BME280;46289;51.992;4.498;2023-08-08T04:00:17;101418.91;;;14.79;75.17
60437;BME280;46289;51.992;4.498;2023-08-08T04:02:25;101414.78;;;14.73;75.83
60437;BME280;46289;51.992;4.498;2023-08-08T04:04:31;101415.63;;;14.74;75.79
60437;BME280;46289;51.992;4.498;2023-08-08T04:06:36;101413.16;;;14.70;75.63
60437;BME280;46289;51.992;4.498;2023-08-08T04:08:41;101410.50;;;14.70;75.54
60437;BME280;46289;51.992;4.498;2023-08-08T04:10:47;101418.75;;;14.64;75.85
60437;BME280;46289;51.992;4.498;2023-08-08T04:12:55;101417.25;;;14.59;75.84
60437;BME280;46289;51.992;4.498;2023-08-08T04:15:01;101421.53;;;14.61;75.33
60437;BME280;46289;51.992;4.498;2023-08-08T04:17:07;101420.03;;;14.56;76.00
60437;BME280;46289;51.992;4.498;2023-08-08T04:19:12;101412.19;;;14.54;75.49
60437;BME280;46289;51.992;4.498;2023-08-08T04:21:17;101415.94;;;14.48;75.78
60437;BME280;46289;51.992;4.498;2023-08-08T04:23:22;101416.38;;;14.39;76.06
60437;BME280;46289;51.992;4.498;2023-08-08T04:25:28;101412.81;;;14.40;75.69
60437;BME280;46289;51.992;4.498;2023-08-08T04:27:33;101416.66;;;14.33;75.85
60437;BME280;46289;51.992;4.498;2023-08-08T04:29:43;101419.47;;;14.30;76.28
60437;BME280;46289;51.992;4.498;2023-08-08T04:31:52;101416.06;;;14.26;76.46
60437;BME280;46289;51.992;4.498;2023-08-08T04:33:57;101420.88;;;14.18;77.10
60437;BME280;46289;51.992;4.498;2023-08-08T04:36:05;101423.16;;;14.26;76.50
60437;BME280;46289;51.992;4.498;2023-08-08T04:38:13;101420.06;;;14.16;77.30
60437;BME280;46289;51.992;4.498;2023-08-08T04:40:19;101419.88;;;14.21;76.85
60437;BME280;46289;51.992;4.498;2023-08-08T04:42:25;101419.06;;;14.19;76.92
60437;BME280;46289;51.992;4.498;2023-08-08T04:44:27;101419.06;;;14.19;77.30
60437;BME280;46289;51.992;4.498;2023-08-08T04:46:35;101429.78;;;14.35;76.15
60437;BME280;46289;51.992;4.498;2023-08-08T04:48:40;101427.16;;;14.35;76.42
60437;BME280;46289;51.992;4.498;2023-08-08T04:50:48;101434.88;;;14.39;76.12
60437;BME280;46289;51.992;4.498;2023-08-08T04:52:53;101431.94;;;14.45;76.27
60437;BME280;46289;51.992;4.498;2023-08-08T04:54:58;101424.56;;;14.54;75.81
60437;BME280;46289;51.992;4.498;2023-08-08T04:57:04;101417.53;;;14.53;76.22
60437;BME280;46289;51.992;4.498;2023-08-08T04:59:10;101424.56;;;14.54;76.67
60437;BME280;46289;51.992;4.498;2023-08-08T05:01:15;101429.69;;;14.57;76.65
60437;BME280;46289;51.992;4.498;2023-08-08T05:03:25;101433.72;;;14.64;76.64
60437;BME280;46289;51.992;4.498;2023-08-08T05:05:30;101428.16;;;14.70;76.32
60437;BME280;46289;51.992;4.498;2023-08-08T05:07:32;101435.16;;;14.71;76.56
60437;BME280;46289;51.992;4.498;2023-08-08T05:09:39;101434.78;;;14.79;76.89
60437;BME280;46289;51.992;4.498;2023-08-08T05:11:45;101431.13;;;14.81;77.08
60437;BME280;46289;51.992;4.498;2023-08-08T05:13:53;101431.56;;;14.91;77.31
60437;BME280;46289;51.992;4.498;2023-08-08T05:15:58;101435.53;;;15.00;77.05
60437;BME280;46289;51.992;4.498;2023-08-08T05:18:05;101430.94;;;15.03;77.44
60437;BME280;46289;51.992;4.498;2023-08-08T05:20:13;101419.28;;;15.07;77.41
60437;BME280;46289;51.992;4.498;2023-08-08T05:22:21;101429.41;;;15.17;76.36
60437;BME280;46289;51.992;4.498;2023-08-08T05:24:27;101428.31;;;15.21;76.97
60437;BME280;46289;51.992;4.498;2023-08-08T05:26:32;101435.38;;;15.37;77.15
60437;BME280;46289;51.992;4.498;2023-08-08T05:28:37;101430.47;;;15.47;76.13
60437;BME280;46289;51.992;4.498;2023-08-08T05:30:42;101433.53;;;15.57;74.62
60437;BME280;46289;51.992;4.498;2023-08-08T05:32:47;101438.13;;;15.53;74.13
60437;BME280;46289;51.992;4.498;2023-08-08T05:34:53;101439.91;;;15.70;73.74
60437;BME280;46289;51.992;4.498;2023-08-08T05:36:58;101444.44;;;15.51;74.54
60437;BME280;46289;51.992;4.498;2023-08-08T05:39:17;101433.91;;;15.32;73.33
60437;BME280;46289;51.992;4.498;2023-08-08T05:41:22;101435.00;;;15.28;72.84
60437;BME280;46289;51.992;4.498;2023-08-08T05:43:28;101445.53;;;15.64;71.92
60437;BME280;46289;51.992;4.498;2023-08-08T05:45:33;101443.47;;;15.87;71.05
60437;BME280;46289;51.992;4.498;2023-08-08T05:47:38;101448.28;;;15.96;70.19
60437;BME280;46289;51.992;4.498;2023-08-08T05:49:43;101440.69;;;16.06;68.70
60437;BME280;46289;51.992;4.498;2023-08-08T05:51:51;101437.88;;;16.09;67.85
60437;BME280;46289;51.992;4.498;2023-08-08T05:54:01;101445.16;;;16.21;66.86
60437;BME280;46289;51.992;4.498;2023-08-08T05:56:06;101439.69;;;16.40;66.55
60437;BME280;46289;51.992;4.498;2023-08-08T05:58:12;101446.75;;;16.41;66.28
60437;BME280;46289;51.992;4.498;2023-08-08T06:00:19;101445.78;;;16.58;66.18
60437;BME280;46289;51.992;4.498;2023-08-08T06:02:25;101446.81;;;16.87;66.05
60437;BME280;46289;51.992;4.498;2023-08-08T06:04:30;101443.97;;;16.90;65.48
60437;BME280;46289;51.992;4.498;2023-08-08T06:06:43;101440.63;;;17.02;66.20
60437;BME280;46289;51.992;4.498;2023-08-08T06:08:51;101450.41;;;17.32;65.92
60437;BME280;46289;51.992;4.498;2023-08-08T06:11:00;101447.91;;;17.15;64.98
60437;BME280;46289;51.992;4.498;2023-08-08T06:13:07;101447.03;;;17.14;64.31
60437;BME280;46289;51.992;4.498;2023-08-08T06:15:12;101454.44;;;17.53;64.53
60437;BME280;46289;51.992;4.498;2023-08-08T06:17:17;101454.16;;;17.44;64.44
60437;BME280;46289;51.992;4.498;2023-08-08T06:19:22;101447.63;;;17.64;64.27
60437;BME280;46289;51.992;4.498;2023-08-08T06:21:27;101452.66;;;17.24;64.65
60437;BME280;46289;51.992;4.498;2023-08-08T06:23:33;101457.84;;;17.55;64.54
60437;BME280;46289;51.992;4.498;2023-08-08T06:25:41;101453.38;;;17.86;63.47
60437;BME280;46289;51.992;4.498;2023-08-08T06:27:52;101448.00;;;17.58;63.05
60437;BME280;46289;51.992;4.498;2023-08-08T06:29:58;101449.88;;;17.55;63.72
60437;BME280;46289;51.992;4.498;2023-08-08T06:32:08;101450.84;;;17.69;63.57
60437;BME280;46289;51.992;4.498;2023-08-08T06:34:13;101458.34;;;18.07;62.67
60437;BME280;46289;51.992;4.498;2023-08-08T06:36:21;101444.63;;;18.27;62.46
60437;BME280;46289;51.992;4.498;2023-08-08T06:38:26;101448.19;;;18.55;61.66
60437;BME280;46289;51.992;4.498;2023-08-08T06:40:37;101443.44;;;18.46;61.09
60437;BME280;46289;51.992;4.498;2023-08-08T06:42:42;101442.88;;;18.55;60.67
60437;BME280;46289;51.992;4.498;2023-08-08T06:44:47;101444.06;;;18.36;60.17
60437;BME280;46289;51.992;4.498;2023-08-08T06:46:55;101438.34;;;18.14;60.21
60437;BME280;46289;51.992;4.498;2023-08-08T06:49:00;101444.56;;;18.56;60.35
60437;BME280;46289;51.992;4.498;2023-08-08T06:51:09;101440.38;;;18.80;59.23
60437;BME280;46289;51.992;4.498;2023-08-08T06:53:14;101447.53;;;18.51;59.93
60437;BME280;46289;51.992;4.498;2023-08-08T06:55:17;101443.03;;;18.66;59.24
60437;BME280;46289;51.992;4.498;2023-08-08T06:57:23;101445.63;;;18.53;59.63
60437;BME280;46289;51.992;4.498;2023-08-08T06:59:28;101440.66;;;17.91;59.99
60437;BME280;46289;51.992;4.498;2023-08-08T07:01:36;101444.28;;;18.05;59.56
60437;BME280;46289;51.992;4.498;2023-08-08T07:03:41;101447.53;;;18.51;59.08
60437;BME280;46289;51.992;4.498;2023-08-08T07:05:46;101444.81;;;18.24;59.92
60437;BME280;46289;51.992;4.498;2023-08-08T07:07:53;101453.16;;;17.75;62.43
60437;BME280;46289;51.992;4.498;2023-08-08T07:10:03;101450.91;;;18.26;61.65
60437;BME280;46289;51.992;4.498;2023-08-08T07:12:09;101448.91;;;18.71;59.78
60437;BME280;46289;51.992;4.498;2023-08-08T07:14:14;101448.78;;;18.87;58.54
60437;BME280;46289;51.992;4.498;2023-08-08T07:16:21;101445.19;;;18.88;59.13
60437;BME280;46289;51.992;4.498;2023-08-08T07:18:29;101454.56;;;19.34;58.09
60437;BME280;46289;51.992;4.498;2023-08-08T07:20:34;101455.88;;;19.41;57.53
60437;BME280;46289;51.992;4.498;2023-08-08T07:22:41;101449.69;;;19.00;57.68
60437;BME280;46289;51.992;4.498;2023-08-08T07:24:46;101440.38;;;19.20;56.88
60437;BME280;46289;51.992;4.498;2023-08-08T07:26:51;101442.00;;;19.36;56.99
60437;BME280;46289;51.992;4.498;2023-08-08T07:28:57;101443.09;;;19.46;56.27
60437;BME280;46289;51.992;4.498;2023-08-08T07:31:02;101437.88;;;19.57;57.08
60437;BME280;46289;51.992;4.498;2023-08-08T07:33:07;101439.06;;;19.91;56.61
60437;BME280;46289;51.992;4.498;2023-08-08T07:35:16;101433.59;;;20.18;55.07
60437;BME280;46289;51.992;4.498;2023-08-08T07:37:21;101432.00;;;19.90;55.19
60437;BME280;46289;51.992;4.498;2023-08-08T07:39:26;101441.06;;;19.49;57.50
60437;BME280;46289;51.992;4.498;2023-08-08T07:41:32;101430.00;;;19.81;56.49
60437;BME280;46289;51.992;4.498;2023-08-08T07:43:35;101435.88;;;19.99;56.68
60437;BME280;46289;51.992;4.498;2023-08-08T07:45:41;101427.34;;;20.44;54.70
60437;BME280;46289;51.992;4.498;2023-08-08T07:47:46;101432.31;;;19.60;56.40
60437;BME280;46289;51.992;4.498;2023-08-08T07:49:51;101424.88;;;19.91;55.48
60437;BME280;46289;51.992;4.498;2023-08-08T07:51:59;101426.84;;;20.26;55.98
60437;BME280;46289;51.992;4.498;2023-08-08T07:54:05;101429.78;;;20.10;55.87
60437;BME280;46289;51.992;4.498;2023-08-08T07:56:12;101432.13;;;19.89;54.82
60437;BME280;46289;51.992;4.498;2023-08-08T07:58:17;101432.81;;;20.29;55.38
60437;BME280;46289;51.992;4.498;2023-08-08T08:00:25;101436.56;;;20.27;55.88
60437;BME280;46289;51.992;4.498;2023-08-08T08:02:31;101433.22;;;19.86;56.79
60437;BME280;46289;51.992;4.498;2023-08-08T08:04:36;101437.16;;;19.15;57.31
60437;BME280;46289;51.992;4.498;2023-08-08T08:06:41;101432.69;;;19.16;57.43
60437;BME280;46289;51.992;4.498;2023-08-08T08:08:49;101433.22;;;19.73;55.94
60437;BME280;46289;51.992;4.498;2023-08-08T08:10:54;101432.53;;;20.08;54.43
60437;BME280;46289;51.992;4.498;2023-08-08T08:13:02;101435.28;;;19.56;56.73
60437;BME280;46289;51.992;4.498;2023-08-08T08:15:10;101442.34;;;19.44;55.50
60437;BME280;46289;51.992;4.498;2023-08-08T08:17:15;101433.31;;;19.19;56.10
60437;BME280;46289;51.992;4.498;2023-08-08T08:19:22;101442.59;;;19.14;57.07
60437;BME280;46289;51.992;4.498;2023-08-08T08:21:27;101433.81;;;19.39;56.28
60437;BME280;46289;51.992;4.498;2023-08-08T08:23:32;101430.13;;;19.67;55.01
60437;BME280;46289;51.992;4.498;2023-08-08T08:25:40;101428.19;;;19.16;56.50
60437;BME280;46289;51.992;4.498;2023-08-08T08:27:45;101427.50;;;20.16;54.86
60437;BME280;46289;51.992;4.498;2023-08-08T08:29:50;101424.56;;;20.32;54.72
60437;BME280;46289;51.992;4.498;2023-08-08T08:31:58;101427.59;;;21.13;54.15
60437;BME280;46289;51.992;4.498;2023-08-08T08:34:04;101436.59;;;20.64;50.76
60437;BME280;46289;51.992;4.498;2023-08-08T08:36:09;101425.69;;;20.91;50.54
60437;BME280;46289;51.992;4.498;2023-08-08T08:38:15;101423.44;;;21.09;49.30
60437;BME280;46289;51.992;4.498;2023-08-08T08:40:17;101426.69;;;20.77;48.99
60437;BME280;46289;51.992;4.498;2023-08-08T08:42:26;101424.63;;;20.93;47.74
60437;BME280;46289;51.992;4.498;2023-08-08T08:44:32;101429.28;;;21.14;46.55
60437;BME280;46289;51.992;4.498;2023-08-08T08:46:38;101421.78;;;20.47;47.25
60437;BME280;46289;51.992;4.498;2023-08-08T08:48:44;101435.31;;;20.93;48.71
60437;BME280;46289;51.992;4.498;2023-08-08T08:50:53;101428.66;;;20.75;48.06
60437;BME280;46289;51.992;4.498;2023-08-08T08:53:00;101444.06;;;20.58;48.85
60437;BME280;46289;51.992;4.498;2023-08-08T08:55:07;101438.34;;;20.76;48.37
60437;BME280;46289;51.992;4.498;2023-08-08T08:57:14;101434.97;;;20.24;51.37
60437;BME280;46289;51.992;4.498;2023-08-08T08:59:24;101437.63;;;19.47;51.70
60437;BME280;46289;51.992;4.498;2023-08-08T09:01:31;101449.06;;;19.49;52.58
60437;BME280;46289;51.992;4.498;2023-08-08T09:03:36;101440.19;;;20.26;52.78
60437;BME280;46289;51.992;4.498;2023-08-08T09:05:45;101450.25;;;20.09;52.62
60437;BME280;46289;51.992;4.498;2023-08-08T09:07:50;101456.31;;;19.60;53.99
60437;BME280;46289;51.992;4.498;2023-08-08T09:09:55;101446.72;;;19.58;51.74
60437;BME280;46289;51.992;4.498;2023-08-08T09:12:03;101456.00;;;20.03;51.94
60437;BME280;46289;51.992;4.498;2023-08-08T09:14:15;101451.75;;;20.63;51.13
60437;BME280;46289;51.992;4.498;2023-08-08T09:16:25;101441.34;;;20.34;50.78
60437;BME280;46289;51.992;4.498;2023-08-08T09:18:31;101458.78;;;20.64;48.98
60437;BME280;46289;51.992;4.498;2023-08-08T09:20:37;101460.63;;;19.88;51.24
60437;BME280;46289;51.992;4.498;2023-08-08T09:22:42;101451.97;;;20.10;51.81
60437;BME280;46289;51.992;4.498;2023-08-08T09:24:47;101460.31;;;19.67;53.36
60437;BME280;46289;51.992;4.498;2023-08-08T09:26:53;101463.94;;;19.79;54.12
60437;BME280;46289;51.992;4.498;2023-08-08T09:28:58;101456.44;;;20.23;51.84
60437;BME280;46289;51.992;4.498;2023-08-08T09:31:06;101449.78;;;20.41;52.09
60437;BME280;46289;51.992;4.498;2023-08-08T09:33:13;101449.72;;;20.67;51.98
60437;BME280;46289;51.992;4.498;2023-08-08T09:35:19;101454.09;;;19.80;53.76
60437;BME280;46289;51.992;4.498;2023-08-08T09:37:28;101456.25;;;20.00;54.15
60437;BME280;46289;51.992;4.498;2023-08-08T09:39:33;101455.84;;;19.81;54.39
60437;BME280;46289;51.992;4.498;2023-08-08T09:41:39;101459.56;;;19.91;55.12
60437;BME280;46289;51.992;4.498;2023-08-08T09:43:47;101464.53;;;20.34;54.78
60437;BME280;46289;51.992;4.498;2023-08-08T09:45:51;101451.59;;;21.01;54.19
60437;BME280;46289;51.992;4.498;2023-08-08T09:47:59;101466.38;;;20.70;52.31
60437;BME280;46289;51.992;4.498;2023-08-08T09:50:09;101459.25;;;20.82;51.29
60437;BME280;46289;51.992;4.498;2023-08-08T09:52:14;101452.19;;;20.94;52.59
60437;BME280;46289;51.992;4.498;2023-08-08T09:54:20;101460.22;;;21.05;50.51
60437;BME280;46289;51.992;4.498;2023-08-08T09:56:26;101454.22;;;21.50;49.97
60437;BME280;46289;51.992;4.498;2023-08-08T09:58:31;101449.38;;;21.66;50.43
60437;BME280;46289;51.992;4.498;2023-08-08T10:00:37;101447.84;;;21.86;50.04
60437;BME280;46289;51.992;4.498;2023-08-08T10:02:44;101449.53;;;21.98;50.68
60437;BME280;46289;51.992;4.498;2023-08-08T10:04:53;101449.78;;;22.18;50.01
60437;BME280;46289;51.992;4.498;2023-08-08T10:07:03;101451.94;;;21.67;50.35
60437;BME280;46289;51.992;4.498;2023-08-08T10:09:09;101455.47;;;21.79;49.15
60437;BME280;46289;51.992;4.498;2023-08-08T10:11:15;101456.31;;;21.68;49.73
60437;BME280;46289;51.992;4.498;2023-08-08T10:13:23;101450.50;;;21.28;48.74
60437;BME280;46289;51.992;4.498;2023-08-08T10:15:28;101451.03;;;21.44;50.97
60437;BME280;46289;51.992;4.498;2023-08-08T10:17:37;101451.47;;;20.79;50.94
60437;BME280;46289;51.992;4.498;2023-08-08T10:19:51;101444.59;;;21.12;52.26
60437;BME280;46289;51.992;4.498;2023-08-08T10:22:03;101452.81;;;21.68;50.87
60437;BME280;46289;51.992;4.498;2023-08-08T10:24:09;101447.91;;;20.91;51.92
60437;BME280;46289;51.992;4.498;2023-08-08T10:26:21;101445.97;;;21.64;50.23
60437;BME280;46289;51.992;4.498;2023-08-08T10:28:32;101462.78;;;20.82;49.71
60437;BME280;46289;51.992;4.498;2023-08-08T10:30:44;101456.44;;;20.23;50.50
60437;BME280;46289;51.992;4.498;2023-08-08T10:32:56;101456.97;;;20.77;50.16
60437;BME280;46289;51.992;4.498;2023-08-08T10:35:05;101460.75;;;20.49;50.20
60437;BME280;46289;51.992;4.498;2023-08-08T10:37:14;101457.09;;;20.50;49.42
60437;BME280;46289;51.992;4.498;2023-08-08T10:39:21;101455.84;;;20.80;49.95
60437;BME280;46289;51.992;4.498;2023-08-08T10:41:44;101458.69;;;21.14;50.42
60437;BME280;46289;51.992;4.498;2023-08-08T10:43:51;101463.09;;;20.91;50.17
60437;BME280;46289;51.992;4.498;2023-08-08T10:46:01;101460.53;;;21.24;51.38
60437;BME280;46289;51.992;4.498;2023-08-08T10:48:15;101456.50;;;21.19;52.29
60437;BME280;46289;51.992;4.498;2023-08-08T10:50:22;101459.31;;;21.41;50.41
60437;BME280;46289;51.992;4.498;2023-08-08T10:52:30;101459.81;;;21.58;50.93
60437;BME280;46289;51.992;4.498;2023-08-08T10:54:37;101462.66;;;21.90;50.82
60437;BME280;46289;51.992;4.498;2023-08-08T10:56:47;101465.19;;;21.58;50.21
60437;BME280;46289;51.992;4.498;2023-08-08T10:58:53;101458.03;;;21.34;50.38
60437;BME280;46289;51.992;4.498;2023-08-08T11:00:58;101450.88;;;22.15;50.44